Time;durP1;ratioP1;P1;durP2;ratioP2;P2;SDS_P1;SDS_P2;PMS_P1;PMS_P2;Temp;Humidity;BMP_temperature;BMP_pressure;BME280_temperature;BME280_humidity;BME280_pressure;Samples;Min_cycle;Max_cycle;Signal;HPM_P1;HPM_P2
2022/12/12 00:00:26;;;;;;;40.60;18.90;;;;;;;-2.04;100.00;100910.72;7397609;19;20190;-59
2022/12/12 00:02:55;;;;;;;44.10;18.63;;;;;;;-2.51;100.00;100919.72;7399689;19;20173;-60
2022/12/12 00:05:27;;;;;;;38.28;17.95;;;;;;;-2.69;100.00;100922.25;7397816;19;20203;-58
2022/12/12 00:07:57;;;;;;;46.92;20.15;;;;;;;-2.79;100.00;100922.09;7399811;19;20154;-60
2022/12/12 00:10:26;;;;;;;44.92;18.88;;;;;;;-2.62;100.00;100918.69;7396096;19;20194;-60
2022/12/12 00:12:56;;;;;;;42.80;17.55;;;;;;;-2.32;100.00;100914.78;7399029;19;20167;-60
2022/12/12 00:15:26;;;;;;;42.65;18.58;;;;;;;-2.05;100.00;100905.56;7396450;19;20664;-60
2022/12/12 00:17:56;;;;;;;42.08;19.63;;;;;;;-1.79;100.00;100900.41;7395633;19;21005;-60
2022/12/12 00:20:28;;;;;;;42.90;19.85;;;;;;;-1.35;100.00;100894.25;7389385;19;20198;-59
2022/12/12 00:22:57;;;;;;;40.88;18.17;;;;;;;-1.64;100.00;100895.00;7391577;19;20500;-60
2022/12/12 00:25:27;;;;;;;46.75;20.48;;;;;;;-1.97;100.00;100908.78;7390476;19;20202;-59
2022/12/12 00:27:56;;;;;;;46.17;21.70;;;;;;;-2.32;100.00;100912.28;7393011;19;20127;-60
2022/12/12 00:30:26;;;;;;;38.25;17.50;;;;;;;-2.45;100.00;100915.28;7389721;19;20197;-59
2022/12/12 00:32:55;;;;;;;38.40;16.13;;;;;;;-2.76;100.00;100919.88;7393243;19;20640;-59
2022/12/12 00:35:27;;;;;;;42.78;18.15;;;;;;;-2.68;100.00;100913.91;7390831;19;20190;-59
2022/12/12 00:37:57;;;;;;;51.03;18.98;;;;;;;-2.58;100.00;100915.72;7391855;19;20632;-61
2022/12/12 00:40:26;;;;;;;40.83;17.60;;;;;;;-2.16;100.00;100912.09;7389905;19;20198;-59
2022/12/12 00:42:56;;;;;;;50.80;20.50;;;;;;;-1.51;100.00;100895.38;7392535;19;20170;-60
2022/12/12 00:45:26;;;;;;;46.30;18.85;;;;;;;-1.61;100.00;100902.88;7390694;19;20194;-59
2022/12/12 00:47:55;;;;;;;46.35;18.60;;;;;;;-2.38;100.00;100902.47;7393507;19;20512;-60
2022/12/12 00:50:27;;;;;;;41.00;17.70;;;;;;;-2.76;100.00;100912.28;7390738;19;20198;-58
2022/12/12 00:52:58;;;;;;;43.40;17.77;;;;;;;-3.04;100.00;100917.13;7395038;19;20655;-60
2022/12/12 00:55:28;;;;;;;47.90;17.63;;;;;;;-3.05;100.00;100913.75;7391765;19;20193;-60
2022/12/12 00:57:57;;;;;;;40.70;17.60;;;;;;;-3.14;100.00;100913.72;7391646;19;20134;-60
2022/12/12 01:00:27;;;;;;;44.45;18.30;;;;;;;-2.86;100.00;100911.38;7389303;19;20190;-60
2022/12/12 01:02:57;;;;;;;40.45;17.65;;;;;;;-2.26;100.00;100899.34;7391645;19;20170;-59
2022/12/12 01:05:30;;;;;;;47.38;19.85;;;;;;;-2.24;100.00;100895.31;7391197;19;20194;-60
2022/12/12 01:08:00;;;;;;;43.15;17.92;;;;;;;-2.19;100.00;100900.06;7393069;19;20138;-59
2022/12/12 01:10:29;;;;;;;43.03;18.50;;;;;;;-2.33;100.00;100905.44;7389499;19;20194;-60
2022/12/12 01:12:59;;;;;;;41.20;18.85;;;;;;;-2.86;100.00;100913.03;7392098;19;20529;-61
2022/12/12 01:15:28;;;;;;;37.63;16.25;;;;;;;-3.02;100.00;100920.72;7391051;19;20190;-60
2022/12/12 01:17:57;;;;;;;43.95;18.50;;;;;;;-3.16;100.00;100917.75;7393598;19;20135;-58
2022/12/12 01:20:30;;;;;;;39.38;18.70;;;;;;;-3.09;100.00;100913.28;7390168;19;20190;-60
2022/12/12 01:22:59;;;;;;;47.05;18.50;;;;;;;-3.15;100.00;100918.63;7392651;19;20162;-60
2022/12/12 01:25:29;;;;;;;40.03;16.38;;;;;;;-3.26;100.00;100920.06;7391406;19;20194;-60
2022/12/12 01:27:58;;;;;;;41.47;18.42;;;;;;;-3.18;100.00;100919.19;7395039;19;20127;-60
2022/12/12 01:30:28;;;;;;;42.55;18.35;;;;;;;-3.45;100.00;100914.81;7391510;19;20190;-59
2022/12/12 01:32:57;;;;;;;48.75;18.40;;;;;;;-3.61;100.00;100919.94;7393303;19;20189;-60
2022/12/12 01:35:29;;;;;;;39.85;17.77;;;;;;;-3.48;100.00;100902.81;7391207;19;20194;-61
2022/12/12 01:37:59;;;;;;;41.58;17.48;;;;;;;-2.82;100.00;100899.06;7393822;19;20131;-57
2022/12/12 01:40:31;;;;;;;47.85;18.17;;;;;;;-3.10;100.00;100899.78;7390569;19;20190;-60
2022/12/12 01:43:01;;;;;;;44.38;18.25;;;;;;;-3.42;100.00;100898.38;7392238;19;20162;-60
2022/12/12 01:46:12;;;;;;;41.00;16.95;;;;;;;-3.10;100.00;100896.34;7390767;19;20198;-60
2022/12/12 01:48:44;;;;;;;42.22;18.15;;;;;;;-3.05;100.00;100892.63;7390207;19;20190;-60
2022/12/12 01:51:18;;;;;;;46.13;18.60;;;;;;;-2.92;100.00;100887.19;7393632;19;20150;-59
2022/12/12 01:53:49;;;;;;;42.05;17.85;;;;;;;-2.78;100.00;100891.06;7388873;19;20226;-58
2022/12/12 01:56:19;;;;;;;50.90;18.30;;;;;;;-3.13;100.00;100892.78;7393237;19;20150;-56
2022/12/12 01:58:51;;;;;;;45.75;18.52;;;;;;;-2.85;100.00;100890.47;7389718;19;20207;-59
2022/12/12 02:01:21;;;;;;;44.30;18.50;;;;;;;-3.44;100.00;100894.78;7393747;19;20126;-60
2022/12/12 02:03:51;;;;;;;44.88;18.63;;;;;;;-3.76;100.00;100899.13;7388639;19;20219;-60
2022/12/12 02:06:25;;;;;;;47.55;18.75;;;;;;;-3.40;100.00;100894.34;7392843;19;20123;-58
2022/12/12 02:08:57;;;;;;;39.30;15.88;;;;;;;-3.52;100.00;100900.69;7388003;19;20201;-60
2022/12/12 02:11:28;;;;;;;43.45;18.33;;;;;;;-2.97;100.00;100894.31;7393083;19;20123;-60
2022/12/12 02:13:59;;;;;;;44.33;18.67;;;;;;;-3.27;100.00;100883.84;7388819;19;20194;-58
2022/12/12 02:16:40;;;;;;;47.58;18.42;;;;;;;-3.62;100.00;100887.88;7393680;19;20226;-60
2022/12/12 02:19:26;;;;;;;46.55;19.13;;;;;;;-3.82;100.00;100900.28;7391644;19;20190;-60
2022/12/12 02:22:01;;;;;;;49.45;18.17;;;;;;;-3.03;100.00;100888.66;7396141;19;20135;-60
2022/12/12 02:25:09;;;;;;;43.33;18.73;;;;;;;-2.87;100.00;100875.91;7393353;19;20212;-60
2022/12/12 02:28:08;;;;;;;42.20;17.38;;;;;;;-3.01;100.00;100877.97;7389956;19;20134;-60
2022/12/12 02:30:42;;;;;;;45.03;18.83;;;;;;;-2.86;100.00;100868.44;7388834;19;20194;-59
2022/12/12 02:33:31;;;;;;;41.70;17.30;;;;;;;-2.76;100.00;100864.31;7390752;19;20193;-60
2022/12/12 02:36:12;;;;;;;51.72;20.48;;;;;;;-3.15;100.00;100868.13;7387805;19;20186;-60
2022/12/12 02:38:48;;;;;;;44.83;18.20;;;;;;;-3.43;100.00;100866.28;7391063;19;20504;-60
2022/12/12 02:41:26;;;;;;;45.58;18.23;;;;;;;-3.68;100.00;100873.91;7392394;19;20530;-59
2022/12/12 02:44:02;;;;;;;40.40;18.42;;;;;;;-3.89;100.00;100877.72;7387357;19;20202;-60
2022/12/12 02:46:38;;;;;;;44.05;17.73;;;;;;;-3.94;100.00;100874.69;7394489;19;20130;-60
2022/12/12 02:49:15;;;;;;;41.95;18.38;;;;;;;-3.71;100.00;100863.53;7388759;19;20551;-60
2022/12/12 02:51:46;;;;;;;38.45;16.88;;;;;;;-3.30;100.00;100863.34;7391235;19;20137;-59
2022/12/12 02:54:16;;;;;;;49.10;19.63;;;;;;;-3.01;100.00;100854.34;7389215;19;20241;-59
2022/12/12 02:56:49;;;;;;;44.08;18.45;;;;;;;-3.13;100.00;100854.91;7391827;19;20165;-59
2022/12/12 02:59:26;;;;;;;54.65;20.45;;;;;;;-3.57;100.00;100866.53;7387883;19;20194;-59
2022/12/12 03:02:08;;;;;;;46.33;19.73;;;;;;;-3.81;100.00;100870.91;7393120;19;20141;-60
2022/12/12 03:07:49;;;;;;;52.08;19.73;;;;;;;-3.60;100.00;100856.16;7391375;19;20123;-60
2022/12/12 03:10:27;;;;;;;45.05;17.67;;;;;;;-3.42;100.00;100862.13;7388791;19;20206;-59
2022/12/12 03:13:00;;;;;;;42.70;19.05;;;;;;;-3.34;100.00;100860.38;7390487;19;20179;-60
2022/12/12 03:15:32;;;;;;;49.90;19.20;;;;;;;-3.24;100.00;100855.47;7387736;19;20621;-59
2022/12/12 03:18:12;;;;;;;55.70;21.25;;;;;;;-3.57;100.00;100861.50;7391521;19;20506;-60
2022/12/12 03:20:46;;;;;;;47.45;17.65;;;;;;;-4.30;100.00;100875.25;7386123;19;20221;-59
2022/12/12 03:23:18;;;;;;;40.47;16.77;;;;;;;-3.82;100.00;100859.03;7389763;19;20189;-60
2022/12/12 03:25:51;;;;;;;45.47;19.98;;;;;;;-3.53;100.00;100853.50;7388045;19;20190;-59
2022/12/12 03:28:25;;;;;;;51.83;18.98;;;;;;;-3.17;100.00;100841.84;7390955;19;20123;-60
2022/12/12 03:30:57;;;;;;;58.83;23.55;;;;;;;-2.95;100.00;100842.31;7390021;19;20178;-59
2022/12/12 03:33:30;;;;;;;53.75;21.17;;;;;;;-2.55;100.00;100829.19;7386680;19;20167;-60
2022/12/12 03:36:09;;;;;;;79.97;32.03;;;;;;;-1.92;100.00;100830.09;7390349;19;20127;-58
2022/12/12 03:38:42;;;;;;;67.15;26.70;;;;;;;-1.76;100.00;100839.06;7388310;19;20123;-59
2022/12/12 03:41:14;;;;;;;54.65;22.95;;;;;;;-1.73;100.00;100843.53;7389231;19;20119;-61
2022/12/12 03:43:47;;;;;;;57.40;22.73;;;;;;;-2.21;100.00;100860.22;7386911;19;20202;-59
2022/12/12 03:46:19;;;;;;;44.17;19.45;;;;;;;-1.98;100.00;100864.00;7390994;19;20491;-60
2022/12/12 03:48:50;;;;;;;45.05;19.00;;;;;;;-1.82;100.00;100868.88;7387412;19;20559;-60
2022/12/12 03:51:27;;;;;;;44.95;18.75;;;;;;;-2.21;100.00;100901.56;7390439;19;20149;-57
2022/12/12 03:53:59;;;;;;;38.38;17.00;;;;;;;-2.19;100.00;100907.63;7385993;19;20204;-60
2022/12/12 03:56:33;;;;;;;44.30;16.85;;;;;;;-3.75;100.00;100928.66;7390054;19;20131;-60
2022/12/12 03:59:06;;;;;;;43.63;17.80;;;;;;;-4.07;100.00;100933.06;7387255;19;20194;-60
2022/12/12 04:01:42;;;;;;;42.70;18.20;;;;;;;-4.08;100.00;100931.28;7387616;19;20127;-60
2022/12/12 04:04:16;;;;;;;46.40;18.63;;;;;;;-4.08;100.00;100930.38;7387922;19;20194;-60
2022/12/12 04:06:52;;;;;;;51.90;18.75;;;;;;;-4.26;100.00;100925.22;7389784;19;20144;-59
2022/12/12 04:15:14;;;;;;;45.92;18.20;;;;;;;-4.40;100.00;100910.31;7386946;19;20194;-60
2022/12/12 04:17:47;;;;;;;43.67;16.15;;;;;;;-4.84;100.00;100915.88;7389615;19;20144;-60
2022/12/12 04:23:17;;;;;;;49.03;17.77;;;;;;;-4.65;100.00;100912.78;7388802;19;20166;-59
2022/12/12 04:28:38;;;;;;;50.55;20.25;;;;;;;-4.70;100.00;100908.88;7385921;19;20135;-60
2022/12/12 04:31:08;;;;;;;50.92;20.33;;;;;;;-4.82;100.00;100906.84;7388302;19;20141;-59
2022/12/12 04:33:42;;;;;;;53.10;17.92;;;;;;;-4.78;100.00;100906.44;7392106;19;20179;-58
2022/12/12 04:36:13;;;;;;;46.95;18.77;;;;;;;-4.79;100.00;100912.22;7396419;19;20153;-59
2022/12/12 04:38:46;;;;;;;47.63;19.48;;;;;;;-5.08;100.00;100897.44;7393031;19;20164;-60
2022/12/12 04:41:16;;;;;;;47.75;18.65;;;;;;;-4.90;100.00;100888.44;7397990;19;20609;-60
2022/12/12 04:43:47;;;;;;;45.72;18.38;;;;;;;-4.91;100.00;100888.28;7391914;19;20198;-60
2022/12/12 04:46:19;;;;;;;51.53;20.48;;;;;;;-4.91;100.00;100878.22;7395647;19;20130;-59
2022/12/12 04:48:53;;;;;;;52.80;18.33;;;;;;;-5.03;100.00;100877.81;7392718;19;20197;-59
2022/12/12 04:51:26;;;;;;;50.50;18.55;;;;;;;-5.06;100.00;100880.91;7395420;19;20126;-60
2022/12/12 04:54:02;;;;;;;57.35;22.52;;;;;;;-4.95;100.00;100876.09;7393323;19;20574;-60
2022/12/12 04:56:32;;;;;;;54.00;21.60;;;;;;;-4.91;100.00;100869.00;7395469;19;20127;-59
2022/12/12 04:59:02;;;;;;;62.30;20.13;;;;;;;-4.84;100.00;100864.63;7392562;19;20186;-60
2022/12/12 05:01:36;;;;;;;48.30;19.98;;;;;;;-4.90;100.00;100869.91;7393804;19;20127;-60
2022/12/12 05:04:10;;;;;;;55.63;20.38;;;;;;;-4.98;100.00;100865.72;7392844;19;20217;-59
2022/12/12 05:06:43;;;;;;;48.85;20.55;;;;;;;-4.91;100.00;100863.09;7395231;19;20162;-60
2022/12/12 05:09:16;;;;;;;49.83;19.83;;;;;;;-4.83;100.00;100859.75;7392040;19;20222;-59
2022/12/12 05:11:46;;;;;;;50.50;20.23;;;;;;;-4.85;100.00;100861.22;7394861;19;20115;-59
2022/12/12 05:14:16;;;;;;;54.92;19.65;;;;;;;-5.15;100.00;100862.28;7391796;19;20198;-58
2022/12/12 05:16:49;;;;;;;61.40;22.55;;;;;;;-5.39;100.00;100858.06;7394972;19;20127;-60
2022/12/12 05:19:18;;;;;;;53.40;19.90;;;;;;;-5.18;100.00;100856.94;7392037;19;20194;-58
2022/12/12 05:21:48;;;;;;;47.47;19.10;;;;;;;-5.17;100.00;100853.69;7392619;19;20139;-59
2022/12/12 05:24:20;;;;;;;50.03;19.85;;;;;;;-5.19;100.00;100861.06;7392856;19;20194;-57
2022/12/12 05:26:49;;;;;;;51.97;19.65;;;;;;;-5.16;100.00;100850.44;7394320;19;20143;-59
2022/12/12 05:29:19;;;;;;;49.08;19.92;;;;;;;-5.14;100.00;100854.00;7393987;19;20217;-60
2022/12/12 05:31:48;;;;;;;50.90;19.20;;;;;;;-5.16;100.00;100861.41;7394031;19;20135;-58
2022/12/12 05:34:18;;;;;;;45.35;19.50;;;;;;;-5.21;100.00;100856.59;7393361;19;20194;-59
2022/12/12 05:36:47;;;;;;;57.08;21.10;;;;;;;-5.17;100.00;100854.56;7394369;19;20138;-59
2022/12/12 05:39:19;;;;;;;53.95;20.10;;;;;;;-5.17;100.00;100859.59;7391519;19;20194;-60
2022/12/12 05:41:49;;;;;;;55.15;21.38;;;;;;;-5.08;100.00;100856.28;7392528;19;20127;-59
2022/12/12 05:44:18;;;;;;;53.40;21.50;;;;;;;-5.37;100.00;100862.53;7391382;19;20668;-60
2022/12/12 05:46:47;;;;;;;52.20;20.30;;;;;;;-5.40;100.00;100861.31;7393922;19;20131;-60
2022/12/12 05:49:17;;;;;;;159.85;61.10;;;;;;;-4.41;100.00;100850.59;7391182;19;20209;-60
2022/12/12 05:51:46;;;;;;;60.40;22.35;;;;;;;-4.10;100.00;100833.56;7393408;19;20154;-60
2022/12/12 05:54:16;;;;;;;92.07;34.47;;;;;;;-3.53;100.00;100826.63;7391709;19;20560;-59
2022/12/12 05:56:48;;;;;;;55.38;23.10;;;;;;;-4.16;100.00;100848.06;7393338;19;20527;-60
2022/12/12 05:59:17;;;;;;;53.83;20.52;;;;;;;-5.14;100.00;100861.56;7390504;19;20213;-58
2022/12/12 06:01:47;;;;;;;54.10;20.10;;;;;;;-5.52;100.00;100863.38;7394263;19;20135;-59
2022/12/12 06:04:16;;;;;;;46.58;19.58;;;;;;;-5.60;100.00;100860.94;7390862;19;20217;-59
2022/12/12 06:06:47;;;;;;;53.95;21.42;;;;;;;-5.63;100.00;100865.66;7393321;19;20182;-60
2022/12/12 06:09:16;;;;;;;50.50;21.60;;;;;;;-5.57;100.00;100872.97;7390076;19;20194;-59
2022/12/12 06:11:48;;;;;;;48.22;19.08;;;;;;;-5.53;100.00;100867.53;7392906;19;20123;-58
2022/12/12 06:14:18;;;;;;;50.75;20.95;;;;;;;-5.52;100.00;100860.88;7390522;19;20198;-60
2022/12/12 06:16:47;;;;;;;51.28;21.02;;;;;;;-5.47;100.00;100869.81;7392498;19;20135;-59
2022/12/12 06:19:17;;;;;;;52.88;20.30;;;;;;;-5.31;100.00;100868.22;7389809;19;20227;-60
2022/12/12 06:21:46;;;;;;;44.65;20.08;;;;;;;-5.32;100.00;100868.94;7391299;19;20123;-60
2022/12/12 06:24:16;;;;;;;56.60;20.38;;;;;;;-5.27;100.00;100871.94;7392902;19;20196;-60
2022/12/12 06:26:45;;;;;;;50.30;19.88;;;;;;;-5.23;100.00;100873.16;7392260;19;20127;-57
2022/12/12 06:29:17;;;;;;;51.60;21.27;;;;;;;-5.36;100.00;100881.00;7389319;19;20214;-60
2022/12/12 06:31:47;;;;;;;58.83;21.15;;;;;;;-5.54;100.00;100878.28;7391975;19;20131;-60
2022/12/12 06:34:16;;;;;;;51.80;19.83;;;;;;;-5.65;100.00;100891.34;7390020;19;20198;-59
2022/12/12 06:36:46;;;;;;;48.83;19.50;;;;;;;-5.70;100.00;100889.22;7392337;19;20601;-59
2022/12/12 06:39:15;;;;;;;55.05;20.13;;;;;;;-5.61;100.00;100889.34;7389169;19;20217;-57
2022/12/12 06:41:45;;;;;;;53.65;18.67;;;;;;;-5.61;100.00;100894.38;7395388;19;20620;-60
2022/12/12 06:44:17;;;;;;;56.75;20.65;;;;;;;-5.62;100.00;100896.69;7390153;19;20233;-60
2022/12/12 06:46:47;;;;;;;42.85;18.77;;;;;;;-5.67;100.00;100900.34;7392299;19;20997;-59
2022/12/12 06:49:16;;;;;;;48.42;20.35;;;;;;;-5.62;100.00;100899.22;7388710;19;20198;-59
2022/12/12 06:51:47;;;;;;;49.67;19.90;;;;;;;-5.62;100.00;100897.63;7391556;19;20127;-59
2022/12/12 06:54:18;;;;;;;55.78;20.35;;;;;;;-5.74;100.00;100904.69;7388955;19;20193;-60
2022/12/12 06:56:48;;;;;;;47.78;20.73;;;;;;;-5.85;100.00;100907.69;7396262;19;20142;-60
2022/12/12 06:59:20;;;;;;;53.67;19.88;;;;;;;-6.02;100.00;100915.88;7388171;19;20203;-59
2022/12/12 07:01:50;;;;;;;43.80;17.27;;;;;;;-6.22;100.00;100924.63;7390392;19;20150;-59
2022/12/12 07:04:19;;;;;;;46.05;18.80;;;;;;;-6.17;100.00;100917.59;7389422;19;20656;-59
2022/12/12 07:06:49;;;;;;;49.83;19.80;;;;;;;-6.05;100.00;100918.94;7391445;19;20134;-59
2022/12/12 07:09:19;;;;;;;52.20;20.75;;;;;;;-6.04;100.00;100914.84;7387809;19;20212;-60
2022/12/12 07:11:48;;;;;;;50.47;20.38;;;;;;;-5.99;100.00;100918.72;7391161;19;20150;-60
2022/12/12 07:14:20;;;;;;;46.78;20.13;;;;;;;-5.90;100.00;100919.72;7389299;19;20187;-60
2022/12/12 07:16:50;;;;;;;51.38;20.13;;;;;;;-5.84;100.00;100925.41;7390914;19;20154;-60
2022/12/12 07:19:21;;;;;;;60.35;22.30;;;;;;;-5.91;100.00;100922.97;7387737;19;20306;-59
2022/12/12 07:21:51;;;;;;;57.13;22.15;;;;;;;-5.97;100.00;100927.31;7390241;19;20146;-60
2022/12/12 07:24:20;;;;;;;57.20;20.35;;;;;;;-6.02;100.00;100925.94;7388736;19;20554;-60
2022/12/12 07:26:50;;;;;;;91.53;32.85;;;;;;;-5.97;100.00;100928.22;7390027;19;20141;-60
2022/12/12 07:29:22;;;;;;;51.00;20.83;;;;;;;-6.21;100.00;100941.47;7387624;19;20202;-60
2022/12/12 07:31:51;;;;;;;58.00;23.77;;;;;;;-6.17;100.00;100943.63;7390214;19;20135;-60
2022/12/12 07:34:21;;;;;;;59.17;23.20;;;;;;;-6.33;100.00;100943.53;7387602;19;20212;-57
2022/12/12 07:36:50;;;;;;;60.72;21.95;;;;;;;-6.41;100.00;100939.28;7390703;19;20162;-59
2022/12/12 07:39:20;;;;;;;82.65;28.77;;;;;;;-6.21;100.00;100933.94;7387099;19;20194;-58
2022/12/12 07:41:49;;;;;;;61.33;21.42;;;;;;;-6.15;100.00;100932.13;7388674;19;20609;-59
2022/12/12 07:44:21;;;;;;;55.38;21.65;;;;;;;-6.04;100.00;100923.28;7387322;19;20186;-59
2022/12/12 07:46:51;;;;;;;46.20;20.05;;;;;;;-5.93;100.00;100916.88;7390548;19;20131;-59
2022/12/12 07:49:21;;;;;;;52.05;19.73;;;;;;;-5.92;100.00;100917.75;7387007;19;20194;-58
2022/12/12 07:51:50;;;;;;;53.05;21.10;;;;;;;-5.93;100.00;100916.88;7389971;19;20139;-60
2022/12/12 07:54:20;;;;;;;47.17;19.95;;;;;;;-5.91;100.00;100915.41;7387895;19;20213;-59
2022/12/12 07:56:49;;;;;;;54.35;22.05;;;;;;;-6.16;100.00;100919.41;7390969;19;20151;-59
2022/12/12 07:59:21;;;;;;;51.15;20.58;;;;;;;-6.25;100.00;100920.16;7387071;19;20190;-58
2022/12/12 08:01:51;;;;;;;55.53;21.75;;;;;;;-6.15;100.00;100918.69;7389001;19;20148;-54
2022/12/12 08:04:20;;;;;;;55.55;21.70;;;;;;;-6.34;100.00;100923.25;7387657;19;20198;-59
2022/12/12 08:06:50;;;;;;;60.88;22.15;;;;;;;-6.23;100.00;100922.84;7390471;19;20131;-59
2022/12/12 08:09:29;;;;;;;54.45;22.13;;;;;;;-6.19;100.00;100924.06;7392184;19;20205;-59
2022/12/12 08:11:58;;;;;;;66.13;23.98;;;;;;;-6.18;100.00;100924.25;7396744;19;20506;-59
2022/12/12 08:14:31;;;;;;;60.70;22.73;;;;;;;-6.18;100.00;100923.34;7394531;19;20217;-59
2022/12/12 08:17:00;;;;;;;60.67;22.48;;;;;;;-6.01;100.00;100930.22;7397036;19;20142;-59
2022/12/12 08:19:29;;;;;;;57.05;22.38;;;;;;;-5.94;100.00;100922.63;7393830;19;20198;-59
2022/12/12 08:21:59;;;;;;;53.58;21.70;;;;;;;-5.83;100.00;100927.19;7398447;19;20131;-59
2022/12/12 08:24:29;;;;;;;61.22;22.52;;;;;;;-5.89;100.00;100929.03;7393677;19;20190;-59
2022/12/12 08:26:58;;;;;;;60.65;22.15;;;;;;;-5.87;100.00;100924.19;7396709;19;20134;-58
2022/12/12 08:29:30;;;;;;;53.22;23.00;;;;;;;-5.89;100.00;100921.50;7393161;19;20190;-59
2022/12/12 08:32:00;;;;;;;55.30;22.58;;;;;;;-5.85;100.00;100923.63;7396300;19;20473;-60
2022/12/12 08:34:31;;;;;;;56.10;21.67;;;;;;;-5.78;100.00;100927.72;7394051;19;20201;-59
2022/12/12 08:37:01;;;;;;;62.22;24.33;;;;;;;-5.74;100.00;100934.00;7395705;19;20734;-60
2022/12/12 08:39:30;;;;;;;56.22;22.13;;;;;;;-5.64;100.00;100933.38;7392904;19;20545;-58
2022/12/12 08:42:00;;;;;;;60.83;22.95;;;;;;;-5.62;100.00;100930.31;7395766;19;20135;-56
2022/12/12 08:44:32;;;;;;;65.45;22.83;;;;;;;-5.59;100.00;100932.25;7395578;19;20221;-60
2022/12/12 08:47:01;;;;;;;65.13;22.30;;;;;;;-5.68;100.00;100939.69;7396564;19;20138;-60
2022/12/12 08:49:31;;;;;;;56.92;22.70;;;;;;;-5.71;100.00;100936.81;7391512;19;20190;-59
2022/12/12 08:52:00;;;;;;;69.50;24.60;;;;;;;-5.71;100.00;100936.81;7395629;19;20130;-59
2022/12/12 08:54:30;;;;;;;67.13;23.73;;;;;;;-5.70;100.00;100933.56;7393276;19;20719;-57
2022/12/12 08:56:59;;;;;;;71.35;22.20;;;;;;;-5.69;100.00;100940.41;7395913;19;20124;-60
2022/12/12 08:59:32;;;;;;;58.67;21.10;;;;;;;-5.64;100.00;100934.25;7392092;19;20198;-53
2022/12/12 09:02:01;;;;;;;86.32;20.50;;;;;;;-5.70;100.00;100928.53;7393850;19;20157;-59
2022/12/12 09:04:31;;;;;;;78.60;24.27;;;;;;;-5.60;100.00;100926.31;7393217;19;20194;-58
2022/12/12 09:07:01;;;;;;;70.10;22.30;;;;;;;-5.46;100.00;100924.41;7392698;19;20153;-57
2022/12/12 09:09:36;;;;;;;58.47;18.40;;;;;;;-5.49;100.00;100921.56;7390573;19;20194;-59
2022/12/12 09:12:06;;;;;;;80.65;21.92;;;;;;;-5.46;100.00;100919.38;7394878;19;20135;-59
2022/12/12 09:14:39;;;;;;;47.30;19.23;;;;;;;-5.36;100.00;100914.63;7391788;19;20565;-59
2022/12/12 09:17:08;;;;;;;57.85;20.70;;;;;;;-5.38;100.00;100926.16;7394768;19;20134;-59
2022/12/12 09:19:38;;;;;;;69.43;21.73;;;;;;;-5.44;100.00;100923.84;7392106;19;20571;-58
2022/12/12 09:22:07;;;;;;;54.85;20.85;;;;;;;-5.29;100.00;100934.69;7394633;19;20270;-59
2022/12/12 09:24:37;;;;;;;56.22;20.77;;;;;;;-5.23;100.00;100931.91;7390125;19;20620;-57
2022/12/12 09:27:07;;;;;;;58.80;20.60;;;;;;;-5.28;100.00;100926.41;7394564;19;20123;-60
2022/12/12 09:29:39;;;;;;;67.00;23.40;;;;;;;-5.30;100.00;100931.97;7391186;19;20190;-59
2022/12/12 09:32:08;;;;;;;52.97;20.20;;;;;;;-5.25;100.00;100922.41;7393948;19;20159;-59
2022/12/12 09:34:38;;;;;;;55.38;20.88;;;;;;;-5.28;100.00;100923.88;7392026;19;20205;-59
2022/12/12 09:37:08;;;;;;;57.25;19.77;;;;;;;-5.23;100.00;100924.38;7395142;19;20131;-57
2022/12/12 09:39:37;;;;;;;53.20;18.98;;;;;;;-5.25;100.00;100925.84;7390751;19;20194;-60
2022/12/12 09:42:12;;;;;;;49.20;17.80;;;;;;;-5.23;100.00;100923.50;7392358;19;20135;-59
2022/12/12 09:44:44;;;;;;;50.10;19.02;;;;;;;-5.24;100.00;100917.56;7390669;19;20207;-58
2022/12/12 09:47:17;;;;;;;80.68;18.35;;;;;;;-5.17;100.00;100930.06;7394323;19;20162;-58
2022/12/12 09:49:49;;;;;;;41.85;17.63;;;;;;;-5.09;100.00;100923.34;7390509;19;20205;-58
2022/12/12 09:52:20;;;;;;;36.67;14.80;;;;;;;-5.01;100.00;100926.69;7393282;19;20195;-59
2022/12/12 09:54:57;;;;;;;48.33;16.95;;;;;;;-4.91;100.00;100928.56;7391326;19;20196;-59
2022/12/12 09:57:30;;;;;;;51.20;16.63;;;;;;;-4.94;100.00;100933.25;7394005;19;20133;-59
2022/12/12 10:00:06;;;;;;;69.85;18.17;;;;;;;-4.87;100.00;100925.63;7390133;19;20657;-59
2022/12/12 10:02:50;;;;;;;50.42;17.80;;;;;;;-4.82;100.00;100928.63;7392765;19;20182;-58
2022/12/12 10:05:26;;;;;;;62.17;20.65;;;;;;;-4.72;100.00;100927.97;7394043;19;20190;-59
2022/12/12 10:08:00;;;;;;;56.28;18.40;;;;;;;-4.69;100.00;100928.28;7393603;19;20157;-62
2022/12/12 10:10:34;;;;;;;51.05;18.55;;;;;;;-4.58;100.00;100920.25;7389521;19;20189;-58
2022/12/12 10:13:05;;;;;;;46.17;16.30;;;;;;;-4.52;100.00;100922.53;7392207;19;20189;-59
2022/12/12 10:15:39;;;;;;;65.85;18.45;;;;;;;-4.47;100.00;100919.75;7390453;19;20190;-59
2022/12/12 10:18:13;;;;;;;43.85;16.80;;;;;;;-4.52;100.00;100920.88;7393160;19;20130;-59
2022/12/12 10:20:47;;;;;;;54.75;19.95;;;;;;;-4.47;100.00;100919.75;7389664;19;20201;-60
2022/12/12 10:23:21;;;;;;;49.53;18.65;;;;;;;-4.29;100.00;100918.97;7391627;19;20162;-60
2022/12/12 10:25:55;;;;;;;78.00;19.85;;;;;;;-3.99;100.00;100913.69;7393071;19;20678;-60
2022/12/12 10:28:26;;;;;;;88.28;28.23;;;;;;;-3.76;100.00;100910.09;7388929;19;20138;-59
2022/12/12 10:31:19;;;;;;;59.13;17.88;;;;;;;-3.52;100.00;100905.75;7391559;19;20166;-59
2022/12/12 10:34:14;;;;;;;138.23;20.63;;;;;;;-2.83;100.00;100892.22;7389427;19;20248;-60
2022/12/12 10:36:53;;;;;;;79.38;17.08;;;;;;;-3.06;100.00;100906.91;7392275;19;20143;-60
2022/12/12 10:39:30;;;;;;;68.75;17.88;;;;;;;-3.91;100.00;100909.41;7389096;19;20197;-60
2022/12/12 10:42:03;;;;;;;48.92;15.77;;;;;;;-4.09;100.00;100918.53;7392231;19;20133;-60
2022/12/12 10:44:49;;;;;;;44.40;15.95;;;;;;;-4.15;100.00;100923.81;7388886;19;20213;-59
2022/12/12 10:47:21;;;;;;;82.60;27.55;;;;;;;-3.32;100.00;100904.31;7394033;19;20162;-58
2022/12/12 10:49:51;;;;;;;62.45;22.83;;;;;;;-3.02;100.00;100900.53;7389141;19;20190;-58
2022/12/12 10:52:22;;;;;;;55.38;17.92;;;;;;;-3.28;100.00;100902.25;7391412;19;20162;-58
2022/12/12 10:54:53;;;;;;;47.65;17.17;;;;;;;-2.97;100.00;100903.50;7389715;19;20198;-54
2022/12/12 10:57:24;;;;;;;69.93;23.85;;;;;;;-3.06;100.00;100904.38;7392231;19;20144;-57
2022/12/12 10:59:55;;;;;;;49.75;17.80;;;;;;;-3.02;100.00;100905.59;7388662;19;20657;-58
2022/12/12 11:02:42;;;;;;;63.28;17.85;;;;;;;-3.60;100.00;100917.56;7391018;19;20162;-55
2022/12/12 11:05:18;;;;;;;66.70;22.55;;;;;;;-3.42;100.00;100915.13;7388664;19;20198;-58
2022/12/12 11:07:50;;;;;;;61.72;21.25;;;;;;;-2.90;100.00;100909.31;7392884;19;20138;-57
2022/12/12 11:10:28;;;;;;;51.13;18.92;;;;;;;-2.55;100.00;100915.13;7387685;19;20200;-57
2022/12/12 11:13:05;;;;;;;47.38;17.48;;;;;;;-3.01;100.00;100927.56;7389744;19;20170;-58
2022/12/12 11:15:40;;;;;;;42.72;16.50;;;;;;;-3.41;100.00;100927.91;7389242;19;20190;-52
2022/12/12 11:18:17;;;;;;;45.90;16.65;;;;;;;-3.84;100.00;100936.16;7391204;19;20122;-57
2022/12/12 11:20:48;;;;;;;43.92;16.08;;;;;;;-4.19;100.00;100944.41;7387959;19;20671;-56
2022/12/12 11:23:21;;;;;;;49.85;17.27;;;;;;;-4.25;100.00;100941.25;7389355;19;20206;-58
2022/12/12 11:25:56;;;;;;;54.00;18.58;;;;;;;-4.24;100.00;100946.47;7390049;19;20190;-58
2022/12/12 11:28:29;;;;;;;49.53;18.50;;;;;;;-4.23;100.00;100945.72;7387941;19;20130;-58
2022/12/12 11:30:59;;;;;;;52.78;18.05;;;;;;;-4.07;100.00;100939.72;7389146;19;20226;-55
2022/12/12 11:33:33;;;;;;;54.22;18.88;;;;;;;-4.05;100.00;100935.75;7386870;19;20163;-55
2022/12/12 11:36:05;;;;;;;57.25;18.10;;;;;;;-4.10;100.00;100941.94;7390421;19;20600;-56
2022/12/12 11:38:39;;;;;;;52.72;18.52;;;;;;;-4.09;100.00;100939.56;7385747;19;20154;-53